Main page
METAR-TAF:

METAR-TAF

Airports :

Pointe-à-Pitre International Airport

Pointe-à-Pitre, Guadeloupe

latitude: 16-16N, longitude: 061-31W, elevation: 11 m

Current weather observation

The report was made 13 minutes ago, at 01:00 UTC
Calm wind
Temperature 23°C
Humidity 73%
Pressure 1014 hPa
Visibility 10 km or more
Few clouds at a height of 3400 ft

METAR: TFFR 110100Z AUTO 00000KT 9999 FEW034 23/18 Q1014 NOSIG

Time: 21:13 (01:13 UTC)

Forecast

The report was made 2 hours and 13 minutes ago, at 23:00 UTC
Forecast valid from 11 at 00 UTC to 11 at 24 UTC
Wind 8 kt from the East/Northeast
Visibility 10 km or more
Scattered clouds at a height of 2600 ft
Probability 40% :
Temporary
from 11 at 02 UTC to 11 at 12 UTC
Wind 2 kt from variable directions

TAF: TFFR 102300Z 1100/1124 06008KT 9999 SCT026 PROB40 TEMPO 1102/1112 VRB02KT

Weather observations and forecasts of more than 4000 airports (METAR and TAF reports).

The available stations are represented by yellow and red dots on the map.

Hover mouse over dot to see the name of the station.

Then click to see weather observations and forecasts.

To change the map : click on the green buttons with a black cross to zoom in, on the green button with a dash to zoom out, or on the green arrows for adjacent maps.


METAR-TAF: